Time;durP1;ratioP1;P1;durP2;ratioP2;P2;SDS_P1;SDS_P2;PMS_P1;PMS_P2;Temp;Humidity;BMP_temperature;BMP_pressure;BME280_temperature;BME280_humidity;BME280_pressure;Samples;Min_cycle;Max_cycle;Signal;HPM_P1;HPM_P2
2024/04/19 05:00:17;;;;;;;11.65;8.07;;;5.50;98.70;;;;;;5186308;22;20660;-74
2024/04/19 05:02:18;;;;;;;12.52;7.85;;;5.50;98.60;;;;;;4283972;27;20040;-73
2024/04/19 05:04:22;;;;;;;14.52;8.05;;;5.50;98.50;;;;;;4285322;27;20031;-74
2024/04/19 05:06:25;;;;;;;13.32;7.82;;;5.50;98.50;;;;;;4285241;27;20004;-73
2024/04/19 05:08:29;;;;;;;12.63;7.93;;;5.50;98.50;;;;;;4285396;27;20326;-74
2024/04/19 05:10:30;;;;;;;13.27;7.93;;;5.50;98.50;;;;;;4284869;27;20014;-74
2024/04/19 05:12:33;;;;;;;13.73;7.78;;;5.50;98.30;;;;;;4285275;27;20005;-74
2024/04/19 05:14:37;;;;;;;12.13;7.53;;;5.50;98.40;;;;;;4284538;27;20023;-74
2024/04/19 05:16:43;;;;;;;13.25;8.05;;;5.60;98.40;;;;;;4284963;27;20014;-74
2024/04/19 05:18:46;;;;;;;13.32;8.10;;;5.60;98.30;;;;;;4285142;27;20330;-74
2024/04/19 05:20:50;;;;;;;12.63;7.95;;;5.60;98.20;;;;;;4284836;27;20004;-74
2024/04/19 05:22:53;;;;;;;11.45;7.50;;;5.60;98.10;;;;;;4284936;27;20004;-74
2024/04/19 05:24:55;;;;;;;15.27;7.50;;;5.60;98.00;;;;;;4284986;27;20330;-75
2024/04/19 05:26:58;;;;;;;12.45;7.63;;;5.60;98.00;;;;;;4284846;27;20016;-74
2024/04/19 05:29:02;;;;;;;14.07;7.65;;;5.60;97.90;;;;;;4284892;27;20004;-74
2024/04/19 05:31:03;;;;;;;11.93;7.75;;;5.60;97.90;;;;;;4284836;27;20442;-74
2024/04/19 05:33:09;;;;;;;13.90;7.82;;;5.70;97.80;;;;;;4284659;27;20015;-74
2024/04/19 05:35:10;;;;;;;12.45;7.50;;;5.70;97.70;;;;;;4284781;27;20012;-75
2024/04/19 05:37:13;;;;;;;14.02;7.53;;;5.70;97.70;;;;;;4284598;27;20004;-74
2024/04/19 05:39:17;;;;;;;13.20;7.82;;;5.70;97.60;;;;;;4284708;27;20004;-75
2024/04/19 05:41:18;;;;;;;12.77;8.02;;;5.70;97.50;;;;;;4284239;27;20095;-74
2024/04/19 05:43:21;;;;;;;12.90;7.88;;;5.80;97.50;;;;;;4285349;27;20008;-74
2024/04/19 05:45:25;;;;;;;13.07;7.75;;;5.80;97.40;;;;;;4287342;27;20005;-75
2024/04/19 05:47:26;;;;;;;12.13;7.30;;;5.80;97.50;;;;;;4287339;27;20374;-75
2024/04/19 05:49:32;;;;;;;12.32;7.80;;;5.80;97.40;;;;;;4287434;27;20004;-74
2024/04/19 05:51:36;;;;;;;12.63;8.25;;;5.80;97.30;;;;;;4287406;27;20338;-74
2024/04/19 05:53:37;;;;;;;14.20;8.18;;;5.80;97.40;;;;;;4287441;27;20000;-75
2024/04/19 05:55:40;;;;;;;16.80;9.00;;;5.90;97.30;;;;;;4287214;27;20031;-75
2024/04/19 05:57:44;;;;;;;13.75;8.43;;;5.90;97.20;;;;;;4287183;27;20011;-76
2024/04/19 05:59:47;;;;;;;14.70;8.20;;;5.90;97.20;;;;;;4287006;27;20036;-74
2024/04/19 06:01:51;;;;;;;13.90;7.82;;;5.90;97.30;;;;;;4287214;27;20016;-74
2024/04/19 06:03:54;;;;;;;12.93;7.65;;;6.00;97.10;;;;;;4287152;27;20439;-74
2024/04/19 06:06:00;;;;;;;14.98;8.25;;;6.00;96.80;;;;;;4287260;27;20015;-74
2024/04/19 06:08:04;;;;;;;13.38;7.55;;;6.00;96.80;;;;;;4287268;27;20001;-74
2024/04/19 06:10:09;;;;;;;12.85;7.28;;;6.00;96.60;;;;;;4286762;27;20004;-74
2024/04/19 06:12:12;;;;;;;12.13;7.72;;;6.10;96.50;;;;;;4287328;27;20338;-74
2024/04/19 06:14:16;;;;;;;11.95;7.47;;;6.20;96.50;;;;;;4286981;27;20047;-74
2024/04/19 06:16:17;;;;;;;12.98;6.97;;;6.20;96.20;;;;;;4287187;27;20334;-74
2024/04/19 06:18:20;;;;;;;12.20;7.28;;;6.20;96.30;;;;;;4287064;27;20005;-75
2024/04/19 06:20:24;;;;;;;12.20;7.22;;;6.20;96.30;;;;;;4286900;27;20008;-74
2024/04/19 06:22:30;;;;;;;11.27;6.95;;;6.20;95.70;;;;;;4287067;27;20019;-74
2024/04/19 06:24:34;;;;;;;11.75;7.25;;;6.20;96.00;;;;;;4286829;27;20023;-75
2024/04/19 06:26:37;;;;;;;10.50;6.00;;;6.20;95.90;;;;;;4286716;27;20004;-74
2024/04/19 06:28:40;;;;;;;12.80;6.75;;;6.30;95.90;;;;;;4286699;27;20004;-74
2024/04/19 06:30:43;;;;;;;11.05;6.30;;;6.30;95.90;;;;;;4286761;27;20288;-74
2024/04/19 06:32:47;;;;;;;11.60;6.75;;;6.30;95.50;;;;;;4286809;27;20011;-75
2024/04/19 06:34:49;;;;;;;12.43;6.25;;;6.30;95.50;;;;;;4286707;27;20004;-75
2024/04/19 06:36:53;;;;;;;10.20;5.70;;;6.30;95.60;;;;;;4286830;27;20410;-74
2024/04/19 06:39:00;;;;;;;9.90;6.05;;;6.40;95.00;;;;;;4286582;27;20027;-74
2024/04/19 06:41:03;;;;;;;8.75;5.55;;;6.50;95.40;;;;;;4286976;27;20021;-74
2024/04/19 06:43:07;;;;;;;10.10;5.80;;;6.50;95.30;;;;;;4286687;27;20001;-74
2024/04/19 06:45:08;;;;;;;9.52;5.95;;;6.60;95.10;;;;;;4286799;27;20431;-74
2024/04/19 06:47:11;;;;;;;9.85;6.18;;;6.60;94.60;;;;;;4286228;27;20019;-74
2024/04/19 06:49:12;;;;;;;10.65;6.13;;;6.60;94.80;;;;;;4286701;27;20008;-75
2024/04/19 06:51:16;;;;;;;12.18;5.53;;;6.60;94.60;;;;;;4286637;27;20012;-75
2024/04/19 06:53:19;;;;;;;11.70;6.10;;;6.70;94.80;;;;;;4286704;27;20114;-75
2024/04/19 06:55:25;;;;;;;9.70;5.68;;;6.70;94.50;;;;;;4286291;27;20088;-74
2024/04/19 06:57:29;;;;;;;9.50;5.45;;;6.70;94.30;;;;;;4286581;27;20449;-74
2024/04/19 06:59:32;;;;;;;10.65;5.85;;;6.70;94.40;;;;;;4286608;27;20015;-75
2024/04/19 07:01:35;;;;;;;9.05;5.53;;;6.70;94.20;;;;;;4286511;27;20005;-75
2024/04/19 07:03:38;;;;;;;10.05;5.70;;;6.80;94.40;;;;;;4286644;27;20019;-75
2024/04/19 07:05:42;;;;;;;10.38;5.72;;;6.80;94.30;;;;;;4286489;27;20005;-75
2024/04/19 07:07:49;;;;;;;10.77;5.78;;;6.90;94.20;;;;;;4286385;27;20008;-75
2024/04/19 07:09:54;;;;;;;9.90;5.75;;;6.90;94.20;;;;;;4286553;27;20015;-75
2024/04/19 07:12:00;;;;;;;10.65;5.85;;;7.00;93.90;;;;;;4286638;27;20337;-75
2024/04/19 07:14:03;;;;;;;10.48;5.30;;;7.00;94.20;;;;;;4286609;27;20014;-75
2024/04/19 07:16:07;;;;;;;9.25;5.63;;;7.00;93.80;;;;;;4286438;27;20373;-75
2024/04/19 07:18:08;;;;;;;11.52;5.43;;;7.10;93.80;;;;;;4286292;27;20335;-74
2024/04/19 07:20:12;;;;;;;11.93;6.13;;;7.20;93.40;;;;;;4286413;27;20072;-74
2024/04/19 07:22:17;;;;;;;10.02;5.13;;;7.30;93.20;;;;;;4286310;27;20015;-74
2024/04/19 07:24:21;;;;;;;10.87;5.30;;;7.20;93.00;;;;;;4286460;27;20004;-74
2024/04/19 07:26:24;;;;;;;9.02;5.38;;;7.30;93.10;;;;;;4286392;27;20240;-74
2024/04/19 07:28:30;;;;;;;10.68;5.40;;;7.30;93.10;;;;;;4286498;27;20004;-74
2024/04/19 07:30:34;;;;;;;9.15;4.80;;;7.40;92.80;;;;;;4286637;27;20005;-75
2024/04/19 07:32:35;;;;;;;10.05;5.40;;;7.40;92.60;;;;;;4286106;27;20019;-74
2024/04/19 07:34:38;;;;;;;8.70;4.85;;;7.40;92.60;;;;;;4285703;27;20013;-75
2024/04/19 07:36:39;;;;;;;8.57;5.10;;;7.40;92.40;;;;;;4286073;27;20431;-75
2024/04/19 07:38:43;;;;;;;9.55;4.93;;;7.40;92.40;;;;;;4285973;27;20008;-75
2024/04/19 07:40:47;;;;;;;8.15;4.72;;;7.40;91.60;;;;;;4286131;27;20000;-74
2024/04/19 07:42:50;;;;;;;9.90;5.07;;;7.40;91.70;;;;;;4286281;27;20354;-75
2024/04/19 07:44:56;;;;;;;9.95;4.80;;;7.30;91.80;;;;;;4285942;27;20019;-75
2024/04/19 07:46:57;;;;;;;;;;;7.30;92.30;;;;;;4286513;27;20001;-74
2024/04/19 07:49:01;;;;;;;9.27;4.75;;;7.30;92.30;;;;;;4285855;27;19936;-74
2024/04/19 07:51:04;;;;;;;9.35;4.95;;;7.20;92.80;;;;;;4285907;27;20004;-74
2024/04/19 07:53:08;;;;;;;8.65;4.75;;;7.20;92.40;;;;;;4286246;27;20008;-75
2024/04/19 07:55:09;;;;;;;8.07;4.50;;;7.20;92.50;;;;;;4286018;27;20000;-74
2024/04/19 07:57:13;;;;;;;8.80;4.80;;;7.20;92.50;;;;;;4285923;27;20041;-75
2024/04/19 07:59:14;;;;;;;10.40;4.88;;;7.10;93.00;;;;;;4285921;27;20004;-75
2024/04/19 08:01:20;;;;;;;8.73;4.82;;;7.20;93.50;;;;;;4285413;27;20454;-75
2024/04/19 08:03:22;;;;;;;;;;;7.00;93.60;;;;;;4286516;27;20327;-74
2024/04/19 08:05:25;;;;;;;8.68;4.90;;;7.10;94.10;;;;;;4285374;27;19936;-74
2024/04/19 08:07:29;;;;;;;7.72;4.25;;;7.10;94.10;;;;;;4285876;27;20000;-75
2024/04/19 08:09:33;;;;;;;7.68;4.80;;;7.10;94.10;;;;;;4286330;27;20103;-75
2024/04/19 08:11:36;;;;;;;8.73;4.80;;;6.90;94.20;;;;;;4285780;27;20431;-75
2024/04/19 08:13:40;;;;;;;10.20;5.25;;;6.80;94.50;;;;;;4285776;27;20001;-75
2024/04/19 08:15:41;;;;;;;10.23;5.22;;;6.80;94.80;;;;;;4285786;27;20016;-75
2024/04/19 08:17:47;;;;;;;8.60;4.60;;;6.90;95.20;;;;;;4285771;27;20446;-75
2024/04/19 08:19:52;;;;;;;9.18;4.82;;;6.90;94.90;;;;;;4285923;27;20008;-75
2024/04/19 08:21:53;;;;;;;8.55;4.85;;;7.00;95.00;;;;;;4285812;27;20005;-75
2024/04/19 08:23:56;;;;;;;9.50;4.55;;;6.90;94.30;;;;;;4285683;27;20041;-75
2024/04/19 08:26:00;;;;;;;7.80;4.60;;;6.90;94.80;;;;;;4285594;27;20474;-74
2024/04/19 08:28:03;;;;;;;8.60;4.60;;;6.90;94.70;;;;;;4285581;27;20015;-75
2024/04/19 08:30:09;;;;;;;9.60;5.03;;;6.80;95.00;;;;;;4285246;27;20447;-75
2024/04/19 08:32:13;;;;;;;10.23;5.57;;;6.90;95.40;;;;;;4285426;27;20015;-75
2024/04/19 08:34:19;;;;;;;7.90;4.25;;;6.90;95.40;;;;;;4285450;27;20004;-75
2024/04/19 08:36:22;;;;;;;;;;;6.90;95.10;;;;;;4286258;27;20023;-74
2024/04/19 08:38:27;;;;;;;8.55;4.68;;;6.90;95.30;;;;;;4285015;27;20366;-75
2024/04/19 08:40:31;;;;;;;7.82;4.75;;;6.80;95.00;;;;;;4285440;27;20005;-75
2024/04/19 08:42:35;;;;;;;8.10;4.65;;;6.80;95.50;;;;;;4285442;27;20015;-75
2024/04/19 08:44:44;;;;;;;7.40;4.28;;;6.80;95.70;;;;;;4285509;27;20004;-75
2024/04/19 08:46:48;;;;;;;8.02;4.53;;;6.80;95.00;;;;;;4285378;27;20016;-75
2024/04/19 08:48:53;;;;;;;7.63;4.57;;;6.70;95.40;;;;;;4285342;27;20044;-75
2024/04/19 08:51:02;;;;;;;8.27;4.47;;;6.80;95.60;;;;;;4285332;27;20016;-75
2024/04/19 08:53:09;;;;;;;7.63;4.60;;;6.80;95.20;;;;;;4285450;27;20449;-75
2024/04/19 08:55:11;;;;;;;8.60;4.22;;;6.80;95.60;;;;;;4285370;27;20001;-75
2024/04/19 08:57:15;;;;;;;7.35;4.30;;;6.80;95.90;;;;;;4285059;27;20012;-75
2024/04/19 08:59:21;;;;;;;9.60;4.50;;;6.80;95.40;;;;;;4285367;27;20363;-74
2024/04/19 09:01:25;;;;;;;8.60;4.80;;;6.80;95.60;;;;;;4285052;27;20030;-75
2024/04/19 09:03:29;;;;;;;7.55;4.18;;;6.80;96.10;;;;;;4285128;27;20004;-74
2024/04/19 09:05:33;;;;;;;7.35;4.65;;;6.70;96.20;;;;;;4284756;27;20255;-74
2024/04/19 09:07:37;;;;;;;8.40;4.63;;;6.60;96.50;;;;;;4285295;27;20015;-75
2024/04/19 09:09:41;;;;;;;7.30;4.60;;;6.60;96.30;;;;;;4285182;27;20024;-75
2024/04/19 09:11:45;;;;;;;7.07;4.38;;;6.50;96.40;;;;;;4285185;27;20005;-75
2024/04/19 09:13:48;;;;;;;7.43;4.55;;;6.50;96.90;;;;;;4285178;27;20460;-75
2024/04/19 09:15:49;;;;;;;8.65;4.70;;;6.40;97.20;;;;;;4285239;27;20015;-75
2024/04/19 09:17:53;;;;;;;8.57;5.40;;;6.40;97.30;;;;;;4283650;27;20009;-75
2024/04/19 09:19:56;;;;;;;8.68;5.03;;;6.50;97.50;;;;;;4284906;27;20009;-75
2024/04/19 09:22:00;;;;;;;9.20;4.72;;;6.50;97.50;;;;;;4284819;27;20019;-74
2024/04/19 09:24:09;;;;;;;7.82;4.93;;;6.40;97.40;;;;;;4284639;27;20038;-75
2024/04/19 09:26:10;;;;;;;10.18;5.13;;;6.40;97.70;;;;;;4283601;27;20324;-75
2024/04/19 09:28:15;;;;;;;7.97;4.78;;;6.30;97.70;;;;;;4282736;27;20014;-75
2024/04/19 09:30:19;;;;;;;7.63;4.82;;;6.40;98.20;;;;;;4282661;27;20032;-75
2024/04/19 09:32:23;;;;;;;7.57;5.07;;;6.40;97.70;;;;;;4282502;27;20005;-75
2024/04/19 09:34:26;;;;;;;8.80;5.47;;;6.40;98.20;;;;;;4282311;27;20084;-75
2024/04/19 09:36:30;;;;;;;7.95;5.00;;;6.50;98.60;;;;;;4283979;27;20024;-75
2024/04/19 09:38:37;;;;;;;9.25;5.22;;;6.50;98.40;;;;;;4301697;27;20008;-75
2024/04/19 09:40:48;;;;;;;9.27;5.30;;;6.50;98.60;;;;;;4295541;27;20011;-76
2024/04/19 09:42:53;;;;;;;7.53;4.68;;;6.50;99.20;;;;;;4300572;27;20008;-76
2024/04/19 09:44:59;;;;;;;9.55;5.97;;;6.50;99.00;;;;;;4282536;27;20023;-76
2024/04/19 09:47:05;;;;;;;;;;;6.60;99.90;;;;;;4282883;27;20430;-76
2024/04/19 09:49:10;;;;;;;9.65;5.40;;;6.60;99.60;;;;;;4282364;27;20431;-76
2024/04/19 09:51:17;;;;;;;8.32;4.63;;;6.50;98.60;;;;;;4280227;27;20013;-76
2024/04/19 09:53:29;;;;;;;7.78;4.72;;;6.40;98.80;;;;;;4278885;27;20008;-75
2024/04/19 09:55:46;;;;;;;9.82;5.35;;;6.50;99.50;;;;;;4282460;27;20548;-75
2024/04/19 09:57:48;;;;;;;7.95;5.22;;;6.50;99.70;;;;;;4284058;27;20004;-75
2024/04/19 09:59:53;;;;;;;9.00;5.28;;;6.40;99.40;;;;;;4282246;27;20108;-75
2024/04/19 10:01:58;;;;;;;9.45;5.22;;;6.50;99.50;;;;;;4282085;27;20004;-75
2024/04/19 10:04:00;;;;;;;8.30;4.93;;;6.50;99.40;;;;;;4281682;27;20331;-76
2024/04/19 10:06:05;;;;;;;10.05;5.82;;;6.40;99.20;;;;;;4281890;27;20394;-76
2024/04/19 10:08:10;;;;;;;8.02;5.47;;;6.50;99.90;;;;;;4299523;27;20004;-76
2024/04/19 10:10:14;;;;;;;11.25;5.28;;;6.40;99.50;;;;;;4281452;27;20023;-76
2024/04/19 10:12:18;;;;;;;9.70;5.70;;;6.40;99.90;;;;;;4293574;27;20007;-76
2024/04/19 10:14:23;;;;;;;9.88;5.57;;;6.40;99.90;;;;;;4304735;27;20445;-75
2024/04/19 10:16:24;;;;;;;8.63;5.70;;;6.30;99.60;;;;;;4289808;27;20052;-76
2024/04/19 10:18:28;;;;;;;9.25;5.47;;;6.30;99.90;;;;;;4307883;27;20090;-76
2024/04/19 10:20:31;;;;;;;9.07;5.40;;;6.40;99.80;;;;;;4310621;27;20004;-76
2024/04/19 10:22:35;;;;;;;10.23;5.60;;;6.40;99.90;;;;;;4311056;27;20424;-76
2024/04/19 10:24:39;;;;;;;10.02;5.80;;;6.40;99.80;;;;;;4310706;27;20334;-75
2024/04/19 10:26:43;;;;;;;8.65;5.53;;;6.40;99.90;;;;;;4309694;27;20011;-76
2024/04/19 10:28:57;;;;;;;9.52;5.60;;;6.40;99.90;;;;;;4311479;27;20003;-76
2024/04/19 10:31:01;;;;;;;9.13;6.00;;;6.40;99.90;;;;;;4313983;27;20011;-75
2024/04/19 10:33:05;;;;;;;8.57;5.50;;;6.40;99.40;;;;;;4314223;27;20004;-76
2024/04/19 10:35:11;;;;;;;9.75;6.18;;;6.40;99.50;;;;;;4314102;27;20016;-76
2024/04/19 10:37:15;;;;;;;9.10;5.18;;;6.40;99.70;;;;;;4314058;27;20019;-76
2024/04/19 10:39:18;;;;;;;8.70;5.30;;;6.40;98.90;;;;;;4314030;27;20000;-76
2024/04/19 10:41:22;;;;;;;8.20;4.97;;;6.40;99.60;;;;;;4313975;27;19999;-76
2024/04/19 10:43:25;;;;;;;8.88;5.15;;;6.40;98.90;;;;;;4314113;27;20438;-76
2024/04/19 10:45:30;;;;;;;7.60;5.10;;;6.50;99.20;;;;;;4313835;27;20004;-75
2024/04/19 10:47:34;;;;;;;7.85;5.25;;;6.50;99.50;;;;;;4313895;27;20091;-76
2024/04/19 10:49:38;;;;;;;8.45;5.45;;;6.50;99.00;;;;;;4313973;27;20003;-76
2024/04/19 10:51:41;;;;;;;8.25;5.30;;;6.50;99.80;;;;;;4313940;27;20011;-76
2024/04/19 10:53:45;;;;;;;7.63;5.22;;;6.50;99.90;;;;;;4313952;27;20122;-76
2024/04/19 10:55:46;;;;;;;7.68;4.78;;;6.50;99.90;;;;;;4313702;27;20003;-75
2024/04/19 10:57:50;;;;;;;7.32;4.90;;;6.50;99.50;;;;;;4313513;27;20333;-75
2024/04/19 10:59:50;;;;;;;8.45;5.30;;;6.50;99.80;;;;;;4313743;27;20008;-76
2024/04/19 11:02:01;;;;;;;6.40;4.38;;;6.60;99.90;;;;;;4313814;27;20037;-75
2024/04/19 11:04:05;;;;;;;6.72;4.30;;;6.60;99.90;;;;;;4313839;27;20093;-75
2024/04/19 11:06:09;;;;;;;8.40;4.50;;;6.60;99.90;;;;;;4313565;27;20465;-76
2024/04/19 11:08:10;;;;;;;7.32;3.95;;;6.60;99.50;;;;;;4313671;27;20350;-76
2024/04/19 11:10:13;;;;;;;7.78;4.15;;;6.60;99.00;;;;;;4313561;27;20441;-76
2024/04/19 11:12:15;;;;;;;6.20;4.13;;;6.60;99.00;;;;;;4313612;27;20004;-76
2024/04/19 11:14:20;;;;;;;6.95;4.45;;;6.60;99.20;;;;;;4313822;27;20018;-76
2024/04/19 11:16:25;;;;;;;7.13;4.72;;;6.70;99.90;;;;;;4313670;27;20006;-75
2024/04/19 11:18:31;;;;;;;6.43;4.28;;;6.60;99.90;;;;;;4313409;27;20011;-75
2024/04/19 11:20:35;;;;;;;7.75;4.35;;;6.70;99.90;;;;;;4313192;27;20032;-75
2024/04/19 11:22:39;;;;;;;6.47;4.03;;;6.70;99.90;;;;;;4313566;27;20004;-75
2024/04/19 11:24:43;;;;;;;6.47;3.80;;;6.70;99.90;;;;;;4313518;27;20019;-75
2024/04/19 11:26:44;;;;;;;6.55;4.07;;;6.70;99.90;;;;;;4313426;27;20008;-75
2024/04/19 11:28:48;;;;;;;7.30;3.80;;;6.70;99.90;;;;;;4313442;27;20004;-75
2024/04/19 11:30:52;;;;;;;7.32;3.42;;;6.70;99.90;;;;;;4313360;27;20012;-75
2024/04/19 11:32:56;;;;;;;5.63;3.47;;;6.60;99.60;;;;;;4313363;27;20007;-75
2024/04/19 11:35:02;;;;;;;6.47;3.80;;;6.60;99.80;;;;;;4313502;27;20003;-75
2024/04/19 11:37:06;;;;;;;5.05;3.17;;;6.60;99.90;;;;;;4313286;27;20015;-75
2024/04/19 11:39:07;;;;;;;6.03;3.60;;;6.60;99.60;;;;;;4313173;27;20008;-75
2024/04/19 11:41:13;;;;;;;5.25;3.55;;;6.60;99.60;;;;;;4312336;27;20009;-75
2024/04/19 11:43:17;;;;;;;5.53;3.20;;;6.60;99.80;;;;;;4313323;27;20322;-76
2024/04/19 11:45:18;;;;;;;6.10;3.70;;;6.50;99.80;;;;;;4313452;27;20000;-75
2024/04/19 11:47:22;;;;;;;6.78;3.45;;;6.50;99.90;;;;;;4313032;27;20056;-76
2024/04/19 11:49:25;;;;;;;4.93;3.15;;;6.50;99.90;;;;;;4313187;27;20004;-75
2024/04/19 11:51:33;;;;;;;5.00;3.00;;;6.50;99.90;;;;;;4312908;27;20007;-76
2024/04/19 11:53:36;;;;;;;5.50;2.90;;;6.40;99.90;;;;;;4313093;27;20402;-75
2024/04/19 11:55:40;;;;;;;5.30;2.75;;;6.40;99.90;;;;;;4310216;27;20007;-75
2024/04/19 11:57:42;;;;;;;4.88;3.00;;;6.40;99.90;;;;;;4295118;27;20023;-74
2024/04/19 11:59:45;;;;;;;5.32;3.05;;;6.40;99.90;;;;;;4300730;27;20019;-77
2024/04/19 12:01:50;;;;;;;5.13;3.00;;;6.40;99.90;;;;;;4298663;27;20022;-76
2024/04/19 12:03:51;;;;;;;5.25;2.85;;;6.40;99.90;;;;;;4312821;27;20012;-76
2024/04/19 12:05:54;;;;;;;5.15;2.80;;;6.40;99.90;;;;;;4312498;27;20477;-76
2024/04/19 12:07:58;;;;;;;5.15;3.00;;;6.30;99.90;;;;;;4313110;27;20007;-75
2024/04/19 12:10:02;;;;;;;4.20;2.47;;;6.30;99.90;;;;;;4312801;27;20064;-77
2024/04/19 12:12:06;;;;;;;4.63;2.83;;;6.20;99.90;;;;;;4313042;27;20015;-74
2024/04/19 12:14:07;;;;;;;5.53;3.00;;;6.20;99.90;;;;;;4303094;27;20008;-74
2024/04/19 12:16:10;;;;;;;4.85;2.95;;;6.10;99.90;;;;;;4312890;27;20004;-74
2024/04/19 12:18:14;;;;;;;5.75;2.50;;;6.20;99.90;;;;;;4312873;27;20032;-74
2024/04/19 12:20:17;;;;;;;4.72;2.88;;;6.10;99.90;;;;;;4312945;27;20014;-74
2024/04/19 12:22:21;;;;;;;5.60;3.00;;;6.10;99.90;;;;;;4311834;27;20003;-74
2024/04/19 12:24:28;;;;;;;4.10;2.47;;;6.10;99.90;;;;;;4302918;27;20008;-74
2024/04/19 12:26:32;;;;;;;4.90;2.75;;;6.20;99.90;;;;;;4283411;27;20020;-74
2024/04/19 12:28:35;;;;;;;4.60;2.60;;;6.20;99.90;;;;;;4283645;27;20008;-73
2024/04/19 12:30:39;;;;;;;5.22;2.95;;;6.20;99.90;;;;;;4283206;27;20020;-74
2024/04/19 12:32:41;;;;;;;5.13;3.08;;;6.10;99.90;;;;;;4283196;27;20004;-75
2024/04/19 12:34:44;;;;;;;4.55;2.42;;;6.10;99.90;;;;;;4283151;27;20008;-75
2024/04/19 12:36:46;;;;;;;4.90;2.80;;;6.10;99.90;;;;;;4282936;27;20088;-74
2024/04/19 12:38:50;;;;;;;4.63;2.50;;;6.20;99.90;;;;;;4283016;27;20354;-74
2024/04/19 12:40:54;;;;;;;4.78;2.90;;;6.10;99.90;;;;;;4283383;27;20009;-73
2024/04/19 12:42:57;;;;;;;5.30;3.15;;;6.10;99.90;;;;;;4283614;27;20012;-74
2024/04/19 12:45:01;;;;;;;5.57;2.70;;;6.10;99.90;;;;;;4283196;27;20330;-76
2024/04/19 12:47:04;;;;;;;5.78;2.78;;;6.10;99.90;;;;;;4283141;27;20547;-75
2024/04/19 12:49:11;;;;;;;5.25;2.40;;;6.10;99.90;;;;;;4284899;27;20027;-74
2024/04/19 12:51:22;;;;;;;4.82;2.58;;;6.10;99.90;;;;;;4283231;27;20019;-74
2024/04/19 12:53:26;;;;;;;4.75;2.85;;;6.20;99.90;;;;;;4303576;27;20008;-74
2024/04/19 12:55:27;;;;;;;5.18;2.83;;;6.20;99.90;;;;;;4309708;27;20323;-75
2024/04/19 12:57:33;;;;;;;6.03;2.78;;;6.10;99.90;;;;;;4288076;27;20084;-74
2024/04/19 12:59:37;;;;;;;;;;;6.10;99.90;;;;;;4285390;27;20115;-76
2024/04/19 13:01:40;;;;;;;4.07;2.55;;;6.10;99.90;;;;;;4303770;27;20274;-75
2024/04/19 13:03:44;;;;;;;5.15;2.92;;;6.10;99.90;;;;;;4291446;27;20780;-75
2024/04/19 13:05:47;;;;;;;4.28;2.28;;;6.20;99.90;;;;;;4309875;27;20453;-75
2024/04/19 13:07:51;;;;;;;5.43;3.05;;;6.10;99.90;;;;;;4304547;27;20020;-75
2024/04/19 13:09:55;;;;;;;5.05;2.80;;;6.10;99.90;;;;;;4283055;27;20015;-75
2024/04/19 13:11:59;;;;;;;5.97;3.45;;;6.20;99.90;;;;;;4282655;27;20005;-74
2024/04/19 13:14:06;;;;;;;5.35;2.90;;;6.20;99.90;;;;;;4282704;27;20004;-74
2024/04/19 13:16:09;;;;;;;5.40;2.78;;;6.20;99.90;;;;;;4282968;27;20342;-74
2024/04/19 13:18:13;;;;;;;6.03;2.80;;;6.20;99.90;;;;;;4282945;27;20431;-74
2024/04/19 13:20:16;;;;;;;4.57;2.55;;;6.20;99.90;;;;;;4282818;27;20016;-74
2024/04/19 13:22:17;;;;;;;5.13;3.05;;;6.20;99.90;;;;;;4282681;27;20015;-75
2024/04/19 13:24:21;;;;;;;3.92;2.60;;;6.20;99.90;;;;;;4284322;27;20470;-74
2024/04/19 13:26:26;;;;;;;5.30;2.70;;;6.20;99.90;;;;;;4309672;27;20007;-74
2024/04/19 13:28:29;;;;;;;5.90;2.60;;;6.20;99.90;;;;;;4282698;27;20048;-74
2024/04/19 13:30:33;;;;;;;4.68;2.60;;;6.20;99.90;;;;;;4307586;27;20338;-75
2024/04/19 13:32:37;;;;;;;4.10;2.40;;;6.20;99.90;;;;;;4294663;27;20024;-75
2024/04/19 13:34:40;;;;;;;4.30;2.58;;;6.10;99.90;;;;;;4282370;27;20015;-74
2024/04/19 13:36:41;;;;;;;4.88;2.70;;;6.10;99.90;;;;;;4282044;27;20001;-74
2024/04/19 13:38:45;;;;;;;4.57;2.67;;;6.20;99.90;;;;;;4297184;27;20019;-75
2024/04/19 13:40:48;;;;;;;5.18;2.90;;;6.20;99.90;;;;;;4309507;27;20323;-74
2024/04/19 13:42:52;;;;;;;4.03;2.13;;;6.20;99.90;;;;;;4309441;27;20497;-74
2024/04/19 13:44:52;;;;;;;4.43;2.42;;;6.10;99.90;;;;;;4309605;27;20008;-74
2024/04/19 13:47:00;;;;;;;5.47;2.53;;;6.10;99.90;;;;;;4306712;27;20052;-74
2024/04/19 13:49:04;;;;;;;5.75;2.42;;;6.10;99.90;;;;;;4308964;27;20004;-74
2024/04/19 13:51:08;;;;;;;4.45;2.47;;;6.10;99.90;;;;;;4309134;27;20055;-74
2024/04/19 13:53:11;;;;;;;4.70;2.60;;;6.10;99.90;;;;;;4299368;27;20009;-74
2024/04/19 13:55:15;;;;;;;4.93;2.50;;;6.10;99.90;;;;;;4282218;27;20011;-74
2024/04/19 13:57:20;;;;;;;4.68;2.45;;;6.10;99.90;;;;;;4281576;27;20554;-74
2024/04/19 13:59:23;;;;;;;5.57;2.50;;;6.10;99.90;;;;;;4278724;27;20026;-74
2024/04/19 14:01:30;;;;;;;5.45;2.15;;;6.10;99.90;;;;;;4280887;27;20009;-74
2024/04/19 14:03:36;;;;;;;4.18;2.30;;;6.10;99.90;;;;;;4282040;27;20346;-75
2024/04/19 14:05:40;;;;;;;4.35;2.60;;;6.10;99.90;;;;;;4286501;27;20449;-74
2024/04/19 14:07:41;;;;;;;4.57;2.40;;;6.20;99.90;;;;;;4284210;27;20024;-74
2024/04/19 14:09:45;;;;;;;4.70;2.60;;;6.20;99.90;;;;;;4310922;27;20027;-75
2024/04/19 14:11:49;;;;;;;4.85;2.25;;;6.10;99.90;;;;;;4310481;27;20018;-74
2024/04/19 14:13:53;;;;;;;4.45;2.50;;;6.20;99.90;;;;;;4311375;27;20003;-75
2024/04/19 14:15:57;;;;;;;4.53;2.42;;;6.20;99.90;;;;;;4311066;27;20420;-74
2024/04/19 14:18:01;;;;;;;4.72;2.50;;;6.20;99.90;;;;;;4290372;27;20012;-75
2024/04/19 14:20:05;;;;;;;4.00;2.17;;;6.30;99.90;;;;;;4284429;27;20024;-75
2024/04/19 14:22:10;;;;;;;4.10;2.40;;;6.30;99.90;;;;;;4284506;27;20019;-75
2024/04/19 14:24:11;;;;;;;4.60;2.50;;;6.20;99.90;;;;;;4275135;27;20017;-74
2024/04/19 14:26:14;;;;;;;4.18;2.55;;;6.30;99.90;;;;;;4283608;27;20013;-74
2024/04/19 14:28:15;;;;;;;9.18;4.47;;;6.30;99.90;;;;;;4284565;27;20023;-75
2024/04/19 14:30:19;;;;;;;6.55;3.00;;;6.30;99.90;;;;;;4284235;27;20429;-74
2024/04/19 14:32:22;;;;;;;5.85;2.97;;;6.40;99.90;;;;;;4284066;27;20009;-74
2024/04/19 14:34:26;;;;;;;4.50;2.78;;;6.30;99.90;;;;;;4283835;27;20009;-74
2024/04/19 14:36:29;;;;;;;11.20;5.63;;;6.40;99.90;;;;;;4283898;27;20078;-74
2024/04/19 14:38:33;;;;;;;5.35;2.42;;;6.40;99.90;;;;;;4284538;27;20008;-74
2024/04/19 14:40:37;;;;;;;4.72;2.28;;;6.40;99.90;;;;;;4277461;27;20005;-74
2024/04/19 14:42:41;;;;;;;4.50;2.55;;;6.50;99.90;;;;;;4280499;27;20009;-75
2024/04/19 14:44:45;;;;;;;7.22;2.60;;;6.50;99.90;;;;;;4284025;27;20034;-74
2024/04/19 14:46:49;;;;;;;3.60;1.92;;;6.50;99.90;;;;;;4284184;27;20040;-74
2024/04/19 14:48:52;;;;;;;3.53;1.80;;;6.40;99.90;;;;;;4283966;27;20008;-73
2024/04/19 14:50:56;;;;;;;3.72;1.60;;;6.40;99.90;;;;;;4284489;27;20443;-74
2024/04/19 14:53:00;;;;;;;5.32;2.13;;;6.40;99.90;;;;;;4283569;27;20392;-75
2024/04/19 14:55:03;;;;;;;2.90;1.52;;;6.30;99.90;;;;;;4283354;27;20112;-73
2024/04/19 14:57:04;;;;;;;3.45;1.60;;;6.30;99.90;;;;;;4284277;27;20012;-74
2024/04/19 14:59:08;;;;;;;3.08;1.40;;;6.30;99.90;;;;;;4279536;27;20035;-75
2024/04/19 15:01:09;;;;;;;3.20;1.40;;;6.30;99.90;;;;;;4282953;27;20008;-75
2024/04/19 15:03:12;;;;;;;2.97;1.35;;;6.20;99.90;;;;;;4284137;27;20040;-74
2024/04/19 15:05:16;;;;;;;3.83;1.83;;;6.20;99.90;;;;;;4284254;27;20016;-73
2024/04/19 15:07:20;;;;;;;2.88;1.30;;;6.20;99.90;;;;;;4283712;27;20091;-74
2024/04/19 15:09:26;;;;;;;2.78;1.30;;;6.20;99.90;;;;;;4274793;27;20068;-74
2024/04/19 15:11:27;;;;;;;2.78;1.10;;;6.20;99.90;;;;;;4271957;27;20421;-74
2024/04/19 15:13:30;;;;;;;3.53;1.35;;;6.20;99.90;;;;;;4282293;27;20013;-74
2024/04/19 15:15:34;;;;;;;3.20;1.45;;;6.20;99.90;;;;;;4279773;27;20044;-74
2024/04/19 15:17:42;;;;;;;2.95;1.40;;;6.20;99.90;;;;;;4282396;27;20023;-74
2024/04/19 15:19:43;;;;;;;3.30;1.42;;;6.20;99.90;;;;;;4282535;27;20004;-74
2024/04/19 15:21:46;;;;;;;2.53;1.23;;;6.20;99.90;;;;;;4282416;27;20005;-74
2024/04/19 15:23:50;;;;;;;2.75;1.40;;;6.20;99.90;;;;;;4282581;27;20439;-74
2024/04/19 15:25:56;;;;;;;3.10;1.48;;;6.20;99.90;;;;;;4281667;27;20008;-74
2024/04/19 15:27:57;;;;;;;4.18;1.65;;;6.30;99.90;;;;;;4282749;27;20023;-75
2024/04/19 15:30:01;;;;;;;2.90;1.35;;;6.30;99.90;;;;;;4281659;27;20459;-75
2024/04/19 15:32:04;;;;;;;3.42;1.40;;;6.30;99.90;;;;;;4281656;27;20004;-74
2024/04/19 15:34:06;;;;;;;3.30;1.52;;;6.30;99.90;;;;;;4282348;27;20016;-74
2024/04/19 15:36:09;;;;;;;2.55;1.25;;;6.20;99.90;;;;;;4281213;27;20023;-75
2024/04/19 15:38:13;;;;;;;3.20;1.50;;;6.30;99.90;;;;;;4282442;27;20008;-74
2024/04/19 15:40:17;;;;;;;3.15;1.58;;;6.30;99.90;;;;;;4282297;27;20020;-74
2024/04/19 15:42:20;;;;;;;2.85;1.25;;;6.30;99.90;;;;;;4282450;27;20339;-74
2024/04/19 15:44:24;;;;;;;3.08;1.58;;;6.20;99.90;;;;;;4282335;27;20339;-74
2024/04/19 15:46:25;;;;;;;2.90;1.30;;;6.30;99.90;;;;;;4281192;27;20020;-73
2024/04/19 15:48:29;;;;;;;3.30;1.30;;;6.20;99.90;;;;;;4281908;27;20004;-74
2024/04/19 15:50:30;;;;;;;3.03;1.45;;;6.20;99.90;;;;;;4282445;27;20009;-74